Time;durP1;ratioP1;P1;durP2;ratioP2;P2;SDS_P1;SDS_P2;PMS_P1;PMS_P2;Temp;Humidity;BMP_temperature;BMP_pressure;BME280_temperature;BME280_humidity;BME280_pressure;Samples;Min_cycle;Max_cycle;Signal;HPM_P1;HPM_P2
2023/05/05 00:01:48;;;;;;;5.63;3.20;;;;;;;9.41;74.38;101168.03;6049147;28;20381;-69
2023/05/05 00:04:43;;;;;;;7.33;3.20;;;;;;;9.28;75.10;101172.66;6048506;28;20037;-71
2023/05/05 00:07:39;;;;;;;8.80;3.07;;;;;;;9.24;75.37;101165.94;6049057;28;20030;-69
2023/05/05 00:10:34;;;;;;;6.33;2.97;;;;;;;9.14;75.06;101154.44;6049874;28;20508;-69
2023/05/05 00:13:30;;;;;;;8.43;3.27;;;;;;;9.20;75.20;101153.94;6061538;28;20311;-70
2023/05/05 00:16:25;;;;;;;8.13;2.97;;;;;;;9.24;75.45;101155.34;6077266;28;20025;-72
2023/05/05 00:19:21;;;;;;;6.13;3.47;;;;;;;9.24;75.06;101160.63;6077221;28;20029;-71
2023/05/05 00:22:16;;;;;;;5.03;2.80;;;;;;;9.18;74.86;101163.81;6076864;28;20040;-68
2023/05/05 00:25:11;;;;;;;5.83;2.83;;;;;;;9.16;74.94;101151.69;6056237;28;20034;-70
2023/05/05 00:28:07;;;;;;;9.93;3.27;;;;;;;9.19;75.35;101159.34;6052794;28;20022;-69
2023/05/05 00:31:02;;;;;;;5.85;2.95;;;;;;;9.03;75.56;101141.25;6053182;28;20030;-71
2023/05/05 00:33:57;;;;;;;9.63;3.67;;;;;;;9.10;75.68;101158.31;6052403;28;20026;-71
2023/05/05 00:36:53;;;;;;;5.47;2.80;;;;;;;8.96;76.32;101145.38;6052401;28;20267;-69
2023/05/05 00:39:48;;;;;;;8.75;3.53;;;;;;;8.89;76.50;101133.59;6052970;28;20021;-71
2023/05/05 00:42:45;;;;;;;6.23;3.17;;;;;;;8.89;77.03;101139.72;6065106;28;20112;-70
2023/05/05 00:45:43;;;;;;;9.38;3.15;;;;;;;8.79;77.12;101137.94;6075867;28;20029;-69
2023/05/05 00:48:38;;;;;;;8.70;3.70;;;;;;;8.72;77.64;101134.13;6076445;28;20018;-69
2023/05/05 00:51:34;;;;;;;7.43;3.65;;;;;;;8.75;78.22;101141.81;6058521;28;20072;-71
2023/05/05 00:54:29;;;;;;;5.90;3.03;;;;;;;8.61;78.09;101124.44;6053445;28;20413;-69
2023/05/05 00:57:25;;;;;;;7.73;3.70;;;;;;;8.71;78.14;101121.88;6052230;28;20492;-69
2023/05/05 01:00:20;;;;;;;7.30;3.45;;;;;;;8.65;78.17;101131.13;6052448;28;20339;-70
2023/05/05 01:03:15;;;;;;;5.67;3.20;;;;;;;8.65;78.65;101125.00;6051695;28;20033;-69
2023/05/05 01:06:34;;;;;;;8.10;3.40;;;;;;;8.74;79.21;101130.41;6052392;28;20744;-72
2023/05/05 01:09:49;;;;;;;6.28;3.53;;;;;;;8.76;78.80;101122.34;6041128;28;20300;-71
2023/05/05 01:13:13;;;;;;;9.15;3.20;;;;;;;8.67;79.03;101101.94;6034659;28;20389;-70
2023/05/05 01:16:24;;;;;;;7.88;3.75;;;;;;;8.74;78.81;101113.69;6034251;28;20045;-71
2023/05/05 01:20:00;;;;;;;8.82;3.72;;;;;;;8.87;78.90;101120.50;6041965;28;20062;-68
2023/05/05 01:22:58;;;;;;;12.07;3.08;;;;;;;8.87;79.08;101109.06;6058849;28;20036;-71
2023/05/05 01:26:22;;;;;;;10.73;3.50;;;;;;;8.85;79.25;101106.56;6033741;28;20114;-71
2023/05/05 01:29:59;;;;;;;6.82;3.55;;;;;;;8.87;79.55;101109.91;6005360;28;20065;-72
2023/05/05 01:33:03;;;;;;;8.75;3.20;;;;;;;8.79;80.32;101101.78;6050803;28;20042;-69
2023/05/05 01:36:03;;;;;;;9.13;3.35;;;;;;;8.72;80.36;101090.03;6033306;28;20036;-70
2023/05/05 01:38:59;;;;;;;;;;;;;;;8.78;80.90;101104.53;6034267;28;20484;-72
2023/05/05 01:41:57;;;;;;;10.07;3.60;;;;;;;8.67;81.06;101094.81;6043014;28;19936;-69
2023/05/05 01:44:53;;;;;;;7.13;2.95;;;;;;;8.73;81.23;101112.84;6035913;28;20087;-69
2023/05/05 01:47:49;;;;;;;8.48;3.72;;;;;;;8.63;81.69;101095.22;6056766;28;20461;-72
2023/05/05 01:50:45;;;;;;;7.82;3.53;;;;;;;8.64;81.79;101107.47;6033730;28;20061;-70
2023/05/05 01:53:41;;;;;;;7.72;3.50;;;;;;;8.54;82.47;101090.66;6033861;28;20053;-71
2023/05/05 01:56:37;;;;;;;6.28;3.03;;;;;;;8.58;82.72;101084.19;6050914;28;20429;-71
2023/05/05 01:59:33;;;;;;;11.15;4.35;;;;;;;8.60;82.92;101087.53;6050327;28;20030;-70
2023/05/05 02:02:30;;;;;;;9.10;4.10;;;;;;;8.59;83.38;101099.09;6035067;28;20044;-71
2023/05/05 02:05:26;;;;;;;7.15;3.47;;;;;;;8.56;83.73;101105.44;6040061;28;20061;-69
2023/05/05 02:08:23;;;;;;;7.55;3.25;;;;;;;8.46;84.08;101082.50;6074336;28;20463;-69
2023/05/05 02:11:18;;;;;;;6.78;3.80;;;;;;;8.53;84.30;101102.22;6057279;28;20025;-71
2023/05/05 02:14:14;;;;;;;9.23;3.67;;;;;;;8.43;84.32;101082.75;6035910;28;20056;-70
2023/05/05 02:17:10;;;;;;;9.23;3.90;;;;;;;8.46;84.52;101085.16;6033293;28;20022;-70
2023/05/05 02:20:06;;;;;;;11.63;3.35;;;;;;;8.48;84.79;101085.88;6049422;28;20076;-70
2023/05/05 02:23:04;;;;;;;10.50;3.03;;;;;;;8.45;84.70;101075.56;6032865;28;20040;-68
2023/05/05 02:26:05;;;;;;;8.75;3.50;;;;;;;8.52;85.22;101087.31;6049631;28;20025;-71
2023/05/05 02:29:06;;;;;;;7.57;3.75;;;;;;;8.44;85.19;101074.72;6050110;28;20088;-70
2023/05/05 02:32:09;;;;;;;12.90;4.55;;;;;;;8.41;85.41;101063.53;6032911;28;20380;-71
2023/05/05 02:35:11;;;;;;;7.03;3.60;;;;;;;8.51;85.59;101090.91;6031081;28;20108;-73
2023/05/05 02:38:12;;;;;;;7.93;4.03;;;;;;;8.37;85.85;101069.06;6032928;28;20029;-68
2023/05/05 02:41:10;;;;;;;9.70;3.75;;;;;;;8.34;86.05;101074.59;6052562;28;20108;-69
2023/05/05 02:44:06;;;;;;;6.28;3.17;;;;;;;8.32;86.29;101079.16;6040996;28;20038;-72
2023/05/05 02:47:03;;;;;;;6.70;3.20;;;;;;;8.35;86.51;101081.56;6032483;28;20033;-69
2023/05/05 02:49:59;;;;;;;8.40;3.92;;;;;;;8.20;86.75;101063.44;6049770;28;20048;-73
2023/05/05 02:52:54;;;;;;;12.13;3.40;;;;;;;8.24;87.33;101081.56;6050145;28;20026;-71
2023/05/05 02:55:52;;;;;;;8.33;3.40;;;;;;;8.23;87.21;101081.69;6052484;28;20037;-68
2023/05/05 02:58:52;;;;;;;9.90;4.03;;;;;;;8.16;87.90;101078.69;6049940;28;20033;-70
2023/05/05 03:02:02;;;;;;;11.88;4.00;;;;;;;8.07;88.22;101060.91;6049555;28;20429;-69
2023/05/05 03:05:03;;;;;;;8.48;3.83;;;;;;;8.16;88.12;101070.75;6071046;28;20033;-72
2023/05/05 03:08:02;;;;;;;;;;;;;;;8.05;88.53;101069.91;6059525;28;20029;-73
2023/05/05 03:11:03;;;;;;;10.00;4.72;;;;;;;7.99;88.55;101068.59;6049422;28;20396;-75
2023/05/05 03:14:06;;;;;;;7.75;4.15;;;;;;;7.99;88.98;101073.88;6043652;28;20354;-71
2023/05/05 03:17:02;;;;;;;11.13;4.00;;;;;;;7.91;89.79;101060.44;6037007;28;20412;-67
2023/05/05 03:19:57;;;;;;;8.75;3.85;;;;;;;7.85;90.20;101055.66;6056944;28;20057;-71
2023/05/05 03:22:53;;;;;;;12.03;4.43;;;;;;;7.87;90.36;101074.00;6049422;28;20064;-71
2023/05/05 03:25:49;;;;;;;10.10;4.13;;;;;;;7.75;90.67;101055.53;6047453;28;20261;-72
2023/05/05 03:28:44;;;;;;;9.60;4.32;;;;;;;7.75;90.56;101065.25;6049338;28;20025;-75
2023/05/05 03:31:40;;;;;;;12.50;4.47;;;;;;;7.67;90.83;101057.09;6073017;28;20036;-69
2023/05/05 03:34:36;;;;;;;9.93;4.10;;;;;;;7.71;91.29;101063.81;6066490;28;20381;-70
2023/05/05 03:37:31;;;;;;;11.98;3.50;;;;;;;7.70;91.43;101051.56;6049095;28;20034;-68
2023/05/05 03:40:27;;;;;;;14.03;3.73;;;;;;;7.62;91.56;101059.25;6049569;28;20569;-71
2023/05/05 03:43:22;;;;;;;11.00;3.97;;;;;;;7.67;92.01;101052.66;6060700;28;20042;-71
2023/05/05 03:46:17;;;;;;;8.57;3.83;;;;;;;7.66;91.74;101058.06;6056980;28;20084;-69
2023/05/05 03:49:13;;;;;;;9.85;3.38;;;;;;;7.68;92.12;101064.06;6090219;28;20025;-68
2023/05/05 03:52:08;;;;;;;10.93;4.43;;;;;;;7.62;92.37;101052.16;6082174;28;20456;-71
2023/05/05 03:55:03;;;;;;;10.30;3.17;;;;;;;7.72;92.40;101066.31;6076210;28;20032;-69
2023/05/05 03:57:59;;;;;;;10.90;3.67;;;;;;;7.67;92.73;101062.38;6055550;28;20118;-73
2023/05/05 04:00:54;;;;;;;7.33;3.37;;;;;;;7.56;92.64;101047.34;6053516;28;20465;-71
2023/05/05 04:03:49;;;;;;;11.30;4.23;;;;;;;7.65;92.61;101077.47;6053351;28;20017;-70
2023/05/05 04:06:45;;;;;;;11.27;4.17;;;;;;;7.62;93.00;101061.88;6053542;28;20041;-71
2023/05/05 04:09:43;;;;;;;12.47;4.10;;;;;;;7.57;92.83;101056.13;6053648;28;20401;-73
2023/05/05 04:12:38;;;;;;;10.73;4.30;;;;;;;7.65;93.43;101078.34;6053558;28;20060;-72
2023/05/05 04:15:33;;;;;;;9.27;3.83;;;;;;;7.64;92.81;101074.00;6052611;28;20033;-72
2023/05/05 04:18:29;;;;;;;7.40;3.70;;;;;;;7.61;93.03;101057.59;6053488;28;20045;-70
2023/05/05 04:21:24;;;;;;;13.73;4.20;;;;;;;7.66;93.25;101061.50;6035684;28;20049;-71
2023/05/05 04:24:23;;;;;;;9.20;4.17;;;;;;;7.61;92.90;101052.31;6052630;28;20585;-71
2023/05/05 04:27:18;;;;;;;11.95;4.00;;;;;;;7.64;93.31;101067.88;6053203;28;20276;-72
2023/05/05 04:30:14;;;;;;;8.33;4.10;;;;;;;7.63;93.13;101082.91;6052972;28;20053;-69
2023/05/05 04:33:09;;;;;;;8.88;4.03;;;;;;;7.63;93.44;101076.78;6053222;28;20112;-73
2023/05/05 04:36:05;;;;;;;10.27;4.27;;;;;;;7.59;93.98;101075.31;6052003;28;20037;-68
2023/05/05 04:39:00;;;;;;;8.05;3.92;;;;;;;7.51;94.39;101059.22;6053112;28;20385;-72
2023/05/05 04:41:57;;;;;;;9.53;3.97;;;;;;;7.58;94.09;101066.53;6062071;28;20067;-70
2023/05/05 04:44:52;;;;;;;7.15;3.50;;;;;;;7.56;93.95;101057.06;6054992;28;20109;-72
2023/05/05 04:47:47;;;;;;;8.40;3.90;;;;;;;7.63;93.96;101063.56;6052766;28;20022;-70
2023/05/05 04:50:42;;;;;;;11.90;4.07;;;;;;;7.67;94.04;101068.47;6052467;28;20085;-68
2023/05/05 04:53:38;;;;;;;9.63;3.90;;;;;;;7.68;93.64;101074.59;6051979;28;20037;-71
2023/05/05 04:56:33;;;;;;;10.82;3.80;;;;;;;8.16;93.06;101091.88;6052235;28;20448;-69
2023/05/05 04:59:29;;;;;;;5.93;3.40;;;;;;;8.19;91.07;101073.16;6051391;28;20025;-73
2023/05/05 05:02:25;;;;;;;10.40;4.33;;;;;;;8.10;91.32;101084.44;6052343;28;20033;-71
2023/05/05 05:05:20;;;;;;;9.15;3.75;;;;;;;8.15;91.79;101084.09;6051202;28;20141;-70
2023/05/05 05:08:16;;;;;;;8.90;3.83;;;;;;;8.35;90.14;101092.13;6052222;28;20033;-71
2023/05/05 05:11:12;;;;;;;8.35;3.70;;;;;;;8.76;88.89;101085.31;6052250;28;20076;-71
2023/05/05 05:14:07;;;;;;;12.53;3.50;;;;;;;9.14;86.58;101072.41;6051634;28;20038;-70
2023/05/05 05:17:02;;;;;;;8.60;4.10;;;;;;;9.66;82.99;101060.91;6052100;28;20026;-70
2023/05/05 05:20:00;;;;;;;7.65;3.75;;;;;;;9.82;82.46;101057.75;6051855;28;20040;-72
2023/05/05 05:22:56;;;;;;;8.13;3.53;;;;;;;9.76;81.98;101072.38;6051187;28;20121;-73
2023/05/05 05:25:51;;;;;;;8.45;3.63;;;;;;;9.65;83.38;101058.41;6050854;28;20437;-70
2023/05/05 05:28:47;;;;;;;10.53;3.90;;;;;;;9.61;82.91;101056.97;6051568;28;20033;-69
2023/05/05 05:31:42;;;;;;;9.07;4.00;;;;;;;9.71;82.07;101032.22;6051706;28;20596;-71
2023/05/05 05:34:37;;;;;;;6.90;3.70;;;;;;;10.05;80.37;101040.72;6050432;28;20057;-72
2023/05/05 05:37:33;;;;;;;10.20;3.47;;;;;;;10.72;78.85;101065.59;6053011;28;20030;-69
2023/05/05 05:40:28;;;;;;;9.93;3.42;;;;;;;10.59;78.22;101061.53;6051264;28;20100;-72
2023/05/05 05:43:24;;;;;;;10.00;3.07;;;;;;;10.71;77.41;101055.94;6063146;28;20029;-70
2023/05/05 05:46:19;;;;;;;8.80;3.70;;;;;;;10.66;77.67;101044.91;6051482;28;20045;-69
2023/05/05 05:49:15;;;;;;;8.45;3.22;;;;;;;11.17;75.69;101060.53;6050801;28;20030;-70
2023/05/05 05:52:10;;;;;;;10.45;3.70;;;;;;;10.99;75.10;101048.97;6051346;28;20516;-71
2023/05/05 05:55:06;;;;;;;9.80;3.30;;;;;;;10.49;77.47;101071.28;6050516;28;20036;-73
2023/05/05 05:58:02;;;;;;;8.75;3.78;;;;;;;10.11;78.80;101048.09;6050684;28;20041;-71
2023/05/05 06:00:58;;;;;;;8.77;3.73;;;;;;;10.29;79.24;101056.31;6051135;28;20081;-71
2023/05/05 06:03:53;;;;;;;8.23;4.72;;;;;;;10.70;77.04;101059.59;6049966;28;20038;-72
2023/05/05 06:06:49;;;;;;;9.10;3.40;;;;;;;11.05;76.83;101060.84;6050913;28;20034;-70
2023/05/05 06:09:44;;;;;;;11.75;4.00;;;;;;;11.70;73.36;101042.31;6062117;28;20033;-70
2023/05/05 06:12:40;;;;;;;10.23;3.47;;;;;;;11.99;70.48;101038.69;6053265;28;20064;-70
2023/05/05 06:15:35;;;;;;;8.10;3.70;;;;;;;12.20;70.64;101052.59;6068655;28;20052;-67
2023/05/05 06:18:30;;;;;;;7.87;4.13;;;;;;;12.04;70.84;101055.03;6058414;28;20030;-68
2023/05/05 06:21:26;;;;;;;9.60;3.93;;;;;;;12.28;68.89;101058.00;6051189;28;20037;-70
2023/05/05 06:24:21;;;;;;;7.63;4.25;;;;;;;12.18;68.72;101065.16;6049839;28;20484;-72
2023/05/05 06:27:17;;;;;;;9.33;3.40;;;;;;;12.25;69.29;101050.31;6050193;28;20044;-70
2023/05/05 06:30:13;;;;;;;8.37;3.73;;;;;;;12.06;70.40;101061.03;6050342;28;20030;-70
2023/05/05 06:33:08;;;;;;;9.25;3.80;;;;;;;12.63;67.86;101054.56;6056655;28;20022;-73
2023/05/05 06:36:04;;;;;;;7.77;3.40;;;;;;;12.86;66.00;101056.59;6049737;28;20038;-71
2023/05/05 06:38:59;;;;;;;8.68;3.63;;;;;;;12.72;66.49;101070.44;6050211;28;20413;-71
2023/05/05 06:41:54;;;;;;;8.20;3.53;;;;;;;12.78;66.57;101053.03;6059216;28;20465;-70
2023/05/05 06:44:50;;;;;;;10.27;4.03;;;;;;;12.96;65.78;101062.69;6052509;28;20420;-69
2023/05/05 06:47:45;;;;;;;12.07;4.03;;;;;;;12.94;66.53;101088.63;6049831;28;20022;-69
2023/05/05 06:50:41;;;;;;;10.23;4.00;;;;;;;12.95;65.89;101082.31;6050265;28;20041;-70
2023/05/05 06:53:36;;;;;;;13.15;4.28;;;;;;;13.49;64.05;101102.63;6049219;28;20038;-71
2023/05/05 06:56:31;;;;;;;12.33;4.30;;;;;;;13.93;61.94;101079.41;6049912;28;20037;-68
2023/05/05 06:59:27;;;;;;;11.47;3.90;;;;;;;13.84;62.85;101090.19;6049855;28;20026;-72
2023/05/05 07:02:22;;;;;;;8.13;4.00;;;;;;;14.61;60.90;101084.72;6049758;28;20032;-69
2023/05/05 07:05:17;;;;;;;7.47;3.77;;;;;;;14.00;62.01;101085.78;6049315;28;20021;-71
2023/05/05 07:08:12;;;;;;;11.27;4.47;;;;;;;14.34;60.74;101098.31;6049362;28;20144;-72
2023/05/05 07:11:11;;;;;;;11.00;4.00;;;;;;;13.88;60.70;101086.22;6049764;28;20268;-69
2023/05/05 07:14:06;;;;;;;8.95;3.90;;;;;;;13.94;62.76;101081.06;6048738;28;20029;-72
2023/05/05 07:17:02;;;;;;;9.17;3.60;;;;;;;13.84;62.41;101066.19;6049548;28;20034;-70
2023/05/05 07:19:57;;;;;;;8.80;4.05;;;;;;;13.82;63.93;101065.50;6049443;28;20500;-69
2023/05/05 07:22:53;;;;;;;9.35;4.20;;;;;;;14.08;62.79;101061.81;6055763;28;20038;-70
2023/05/05 07:25:48;;;;;;;12.43;4.07;;;;;;;13.73;62.98;101083.28;6056801;28;20453;-72
2023/05/05 07:28:44;;;;;;;9.73;4.18;;;;;;;13.92;62.47;101077.72;6048986;28;20489;-72
2023/05/05 07:31:39;;;;;;;14.57;4.78;;;;;;;14.00;61.79;101080.44;6057614;28;20068;-70
2023/05/05 07:34:36;;;;;;;10.40;3.97;;;;;;;14.24;60.99;101069.06;6056464;28;20026;-69
2023/05/05 07:37:32;;;;;;;10.23;3.90;;;;;;;14.42;60.78;101071.66;6057149;28;20105;-72
2023/05/05 07:40:27;;;;;;;7.70;3.87;;;;;;;14.50;60.50;101083.19;6057302;28;20465;-70
2023/05/05 07:43:22;;;;;;;10.30;3.93;;;;;;;14.72;59.90;101073.72;6068899;28;20038;-72
2023/05/05 07:46:17;;;;;;;10.00;4.40;;;;;;;14.92;59.16;101067.06;6057446;28;20101;-72
2023/05/05 07:49:13;;;;;;;9.63;4.03;;;;;;;14.82;59.88;101066.41;6057233;28;20021;-71
2023/05/05 07:52:08;;;;;;;9.17;4.30;;;;;;;15.06;59.49;101073.59;6056950;28;20895;-71
2023/05/05 07:55:04;;;;;;;9.23;4.20;;;;;;;15.25;58.18;101074.09;6056577;28;20428;-69
2023/05/05 07:57:59;;;;;;;11.05;4.05;;;;;;;14.86;58.53;101057.91;6056944;28;20021;-72
2023/05/05 08:00:54;;;;;;;7.90;3.97;;;;;;;15.05;59.17;101062.09;6057284;28;20073;-71
2023/05/05 08:03:50;;;;;;;9.47;4.30;;;;;;;15.75;56.67;101073.09;6056333;28;20137;-71
2023/05/05 08:06:45;;;;;;;11.13;4.57;;;;;;;15.50;56.78;101056.25;6064122;28;20022;-71
2023/05/05 08:09:40;;;;;;;8.43;4.30;;;;;;;15.86;56.42;101062.88;6056846;28;20044;-73
2023/05/05 08:12:36;;;;;;;15.18;5.18;;;;;;;15.79;56.14;101050.34;6056828;28;20030;-72
2023/05/05 08:15:31;;;;;;;7.88;4.28;;;;;;;15.56;56.08;101054.75;6056527;28;20117;-72
2023/05/05 08:18:27;;;;;;;8.67;4.30;;;;;;;15.77;56.99;101053.19;6056981;28;20033;-71
2023/05/05 08:21:22;;;;;;;9.83;4.30;;;;;;;15.95;55.59;101045.75;6056426;28;20033;-71
2023/05/05 08:24:17;;;;;;;9.43;4.33;;;;;;;16.10;55.41;101059.25;6056488;28;20268;-71
2023/05/05 08:27:13;;;;;;;7.37;4.30;;;;;;;15.77;56.97;101049.66;6056637;28;20064;-73
2023/05/05 08:30:08;;;;;;;12.10;4.93;;;;;;;15.72;57.22;101062.72;6056764;28;20036;-73
2023/05/05 08:33:04;;;;;;;8.48;4.13;;;;;;;16.11;56.18;101074.31;6053837;28;20026;-72
2023/05/05 08:35:59;;;;;;;8.00;4.00;;;;;;;16.03;56.75;101063.66;6052230;28;20036;-71
2023/05/05 08:38:55;;;;;;;7.93;4.45;;;;;;;16.37;54.90;101061.50;6057378;28;20061;-71
2023/05/05 08:41:50;;;;;;;13.02;4.35;;;;;;;16.61;54.99;101077.44;6057813;28;20251;-68
2023/05/05 08:44:45;;;;;;;8.27;4.30;;;;;;;16.75;54.32;101075.03;6069997;28;20049;-71
2023/05/05 08:47:42;;;;;;;8.37;4.10;;;;;;;17.19;52.27;101073.38;6052536;28;21627;-72
2023/05/05 08:50:38;;;;;;;11.02;4.35;;;;;;;17.37;51.89;101059.63;6052405;28;20028;-70
2023/05/05 08:53:57;;;;;;;8.95;4.90;;;;;;;17.18;52.58;101085.09;6052002;28;20089;-70
2023/05/05 08:56:52;;;;;;;11.77;4.60;;;;;;;17.13;53.31;101088.31;6052166;28;20041;-72
2023/05/05 08:59:48;;;;;;;8.90;4.38;;;;;;;17.12;51.91;101089.31;6052430;28;20026;-72
2023/05/05 09:02:44;;;;;;;10.10;4.60;;;;;;;17.27;52.38;101102.78;6034681;28;20036;-74
2023/05/05 09:05:41;;;;;;;8.98;4.28;;;;;;;17.00;52.74;101095.28;6051813;28;20054;-70
2023/05/05 09:08:37;;;;;;;12.73;4.80;;;;;;;17.32;52.04;101095.03;6052311;28;20033;-70
2023/05/05 09:11:32;;;;;;;10.98;4.53;;;;;;;17.08;51.94;101087.19;6051601;28;20042;-71
2023/05/05 09:14:28;;;;;;;8.18;4.40;;;;;;;17.26;52.32;101085.03;6051664;28;20350;-73
2023/05/05 09:17:24;;;;;;;10.10;4.60;;;;;;;17.96;50.54;101100.84;6051663;28;20046;-72
2023/05/05 09:20:19;;;;;;;9.95;4.28;;;;;;;18.18;50.04;101099.91;6052362;28;20381;-70
2023/05/05 09:23:16;;;;;;;8.00;3.57;;;;;;;18.00;50.20;101091.38;6051548;28;20068;-71
2023/05/05 09:26:11;;;;;;;10.20;4.32;;;;;;;17.95;49.81;101091.94;6051871;28;20030;-70
2023/05/05 09:29:07;;;;;;;10.33;4.97;;;;;;;17.93;50.67;101091.31;6051617;28;20029;-71
2023/05/05 09:32:07;;;;;;;8.30;4.33;;;;;;;18.25;49.27;101087.41;6052621;28;20034;-72
2023/05/05 09:35:02;;;;;;;;;;;;;;;18.20;49.40;101087.13;6051323;28;20040;-70
2023/05/05 09:38:10;;;;;;;10.07;4.47;;;;;;;17.82;50.16;101075.66;6051475;28;19909;-69
2023/05/05 09:41:05;;;;;;;11.63;5.03;;;;;;;18.42;49.14;101070.91;6053836;28;20022;-72
2023/05/05 09:44:00;;;;;;;9.53;4.57;;;;;;;18.67;47.17;101076.78;6052165;28;20048;-73
2023/05/05 09:46:57;;;;;;;12.27;3.87;;;;;;;18.90;47.86;101077.47;6075221;28;20279;-70
2023/05/05 09:49:56;;;;;;;12.75;4.30;;;;;;;18.68;47.35;101064.19;6075181;28;20064;-71
2023/05/05 09:52:56;;;;;;;10.48;5.18;;;;;;;18.89;47.26;101058.81;6074856;28;20029;-73
2023/05/05 09:55:55;;;;;;;;;;;;;;;18.87;47.46;101074.31;6074751;28;20029;-72
2023/05/05 09:59:06;;;;;;;7.13;4.30;;;;;;;18.92;46.98;101064.66;6052713;28;19905;-72
2023/05/05 10:02:12;;;;;;;13.00;5.03;;;;;;;18.42;48.17;101072.75;6051136;28;20048;-71
2023/05/05 10:05:12;;;;;;;8.88;4.07;;;;;;;18.17;49.13;101040.03;6050018;28;20025;-72
2023/05/05 10:08:12;;;;;;;8.13;4.32;;;;;;;18.15;49.20;101054.66;6051003;28;20034;-70
2023/05/05 10:11:07;;;;;;;9.18;4.72;;;;;;;18.62;48.31;101049.66;6034217;28;20029;-71
2023/05/05 10:14:05;;;;;;;6.90;4.20;;;;;;;18.66;48.22;101042.91;6052259;28;20504;-72
2023/05/05 10:17:00;;;;;;;10.85;4.70;;;;;;;18.56;48.00;101023.59;6045208;28;20029;-72
2023/05/05 10:19:58;;;;;;;10.05;4.53;;;;;;;18.61;48.59;101037.28;6049567;28;20072;-71
2023/05/05 10:22:55;;;;;;;11.00;5.50;;;;;;;18.60;48.74;101059.78;6051771;28;20041;-72
2023/05/05 10:25:59;;;;;;;12.73;4.78;;;;;;;18.43;48.78;101071.72;6037445;28;20408;-71
2023/05/05 10:28:55;;;;;;;8.77;5.47;;;;;;;17.93;49.78;101063.63;6071190;28;20052;-73
2023/05/05 10:31:57;;;;;;;10.45;5.30;;;;;;;18.34;50.19;101049.50;6053578;28;20031;-70
2023/05/05 10:34:57;;;;;;;11.85;4.75;;;;;;;18.53;49.90;101032.03;6042913;28;20021;-73
2023/05/05 10:37:53;;;;;;;9.02;4.45;;;;;;;18.80;49.09;101031.28;6047074;28;20112;-73
2023/05/05 10:40:49;;;;;;;10.82;5.68;;;;;;;18.68;48.88;101030.09;6046291;28;20034;-71
2023/05/05 10:43:45;;;;;;;11.07;5.00;;;;;;;18.85;48.86;101028.00;6059092;28;20057;-73
2023/05/05 10:46:41;;;;;;;8.32;4.95;;;;;;;18.83;49.31;101030.88;6036555;28;20049;-72
2023/05/05 10:49:43;;;;;;;9.80;4.57;;;;;;;19.40;48.03;101035.34;6052819;28;20025;-72
2023/05/05 10:52:50;;;;;;;11.52;4.85;;;;;;;19.43;47.85;101049.22;6052403;28;20066;-71
2023/05/05 10:55:49;;;;;;;8.43;5.05;;;;;;;18.77;48.31;101034.34;6051260;28;20461;-71
2023/05/05 10:58:44;;;;;;;8.80;5.13;;;;;;;18.77;48.80;101055.84;6045814;28;20103;-69
2023/05/05 11:01:39;;;;;;;13.70;5.70;;;;;;;18.48;49.76;101050.53;6046358;28;20033;-71
2023/05/05 11:04:35;;;;;;;17.90;5.78;;;;;;;18.72;49.40;101031.41;6060873;28;20770;-71
2023/05/05 11:07:31;;;;;;;10.83;5.63;;;;;;;18.61;50.00;101045.34;6058687;28;20124;-70
2023/05/05 11:10:42;;;;;;;11.65;5.68;;;;;;;18.45;49.84;101045.53;6078867;28;20037;-74
2023/05/05 11:13:38;;;;;;;10.80;5.60;;;;;;;18.84;49.74;101047.81;6048678;28;20038;-70
2023/05/05 11:16:41;;;;;;;10.80;5.50;;;;;;;18.89;50.33;101051.59;6049004;28;20041;-71
2023/05/05 11:19:43;;;;;;;9.52;4.63;;;;;;;19.11;50.47;101044.38;6049430;28;20121;-71
2023/05/05 11:23:03;;;;;;;19.45;6.22;;;;;;;18.80;51.35;101047.41;6049427;28;20351;-70
2023/05/05 11:25:58;;;;;;;11.30;5.70;;;;;;;18.97;50.90;101043.41;6048759;28;20441;-72
2023/05/05 11:28:54;;;;;;;16.45;6.10;;;;;;;18.60;51.87;101042.81;6048807;28;20026;-74
2023/05/05 11:32:23;;;;;;;15.75;5.35;;;;;;;18.36;52.66;101039.44;6049243;28;20537;-72
2023/05/05 11:35:19;;;;;;;10.43;5.93;;;;;;;18.27;52.32;101031.66;6001846;28;20173;-73
2023/05/05 11:38:14;;;;;;;17.10;6.73;;;;;;;18.31;52.39;101038.34;6048787;28;20034;-70
2023/05/05 11:41:20;;;;;;;11.10;4.95;;;;;;;18.18;52.76;101032.81;6050450;28;20420;-71
2023/05/05 11:44:19;;;;;;;10.25;5.18;;;;;;;18.06;52.25;101019.03;6056543;28;20042;-72
2023/05/05 11:47:14;;;;;;;8.73;4.70;;;;;;;18.34;52.15;101029.91;6048783;28;20038;-71
2023/05/05 11:50:17;;;;;;;11.60;5.28;;;;;;;18.28;51.36;101018.06;6049230;28;20457;-73
2023/05/05 11:53:13;;;;;;;11.52;5.53;;;;;;;18.10;52.65;101014.13;6048930;28;20057;-71
2023/05/05 11:56:09;;;;;;;13.55;5.40;;;;;;;18.05;52.92;101013.81;6030338;28;20449;-70
2023/05/05 11:59:09;;;;;;;9.20;4.85;;;;;;;18.01;53.68;101025.97;6049106;28;20036;-72
2023/05/05 12:02:04;;;;;;;9.98;5.32;;;;;;;18.28;53.33;101012.69;6048463;28;20104;-70
2023/05/05 12:05:00;;;;;;;8.23;4.97;;;;;;;18.68;52.61;101030.09;6048181;28;20046;-70
2023/05/05 12:07:56;;;;;;;7.90;4.43;;;;;;;18.59;53.46;101027.75;6072665;28;20026;-71
2023/05/05 12:10:51;;;;;;;16.27;5.65;;;;;;;18.40;53.95;101019.22;6077353;28;20063;-71
2023/05/05 12:13:46;;;;;;;8.13;5.37;;;;;;;18.44;54.48;101025.06;6076752;28;20025;-72
2023/05/05 12:17:02;;;;;;;12.77;6.43;;;;;;;18.30;54.38;101015.16;6069414;28;20280;-71
2023/05/05 12:19:57;;;;;;;9.05;5.07;;;;;;;18.53;53.83;101013.22;6053184;28;20030;-72
2023/05/05 12:22:58;;;;;;;11.33;5.10;;;;;;;18.30;54.04;101013.31;6052472;28;20440;-72
2023/05/05 12:25:53;;;;;;;12.07;5.30;;;;;;;18.25;54.76;101018.44;6052756;28;20028;-71
2023/05/05 12:28:48;;;;;;;10.30;4.97;;;;;;;18.24;55.12;101023.97;6052699;28;20033;-71
2023/05/05 12:31:44;;;;;;;11.93;6.40;;;;;;;17.94;56.77;101011.63;6053035;28;20492;-71
2023/05/05 12:34:40;;;;;;;13.00;6.43;;;;;;;18.22;57.42;101007.22;6052062;28;20029;-72
2023/05/05 12:37:35;;;;;;;10.75;6.22;;;;;;;17.77;59.85;101019.03;6052630;28;20033;-71
2023/05/05 12:40:47;;;;;;;12.45;5.90;;;;;;;17.95;61.15;100999.88;6053092;28;20121;-73
2023/05/05 12:43:43;;;;;;;16.23;6.40;;;;;;;17.95;60.35;100989.13;6061134;28;20452;-71
2023/05/05 12:46:45;;;;;;;14.13;6.17;;;;;;;18.30;60.46;100988.31;6066127;28;20026;-71
2023/05/05 12:49:48;;;;;;;11.23;6.25;;;;;;;18.25;59.57;100993.44;6052270;28;20022;-71
2023/05/05 12:52:44;;;;;;;17.02;6.00;;;;;;;18.64;58.40;100980.47;6052864;28;20037;-73
2023/05/05 12:55:39;;;;;;;15.60;5.97;;;;;;;18.96;56.28;100989.84;6052000;28;20031;-72
2023/05/05 12:59:01;;;;;;;11.43;5.50;;;;;;;19.11;55.76;100989.75;6052231;28;20029;-70
2023/05/05 13:02:01;;;;;;;10.93;5.75;;;;;;;19.53;53.92;100987.00;6048015;28;20084;-71
2023/05/05 13:04:56;;;;;;;10.77;5.82;;;;;;;19.13;54.99;100975.13;6051229;28;20106;-73
2023/05/05 13:07:51;;;;;;;12.93;5.73;;;;;;;19.09;55.50;100978.38;6051967;28;20384;-68
2023/05/05 13:10:57;;;;;;;13.45;6.07;;;;;;;19.30;55.04;100975.63;6051922;28;20281;-74
2023/05/05 13:13:53;;;;;;;10.98;5.82;;;;;;;19.72;53.91;100972.84;6051477;28;20121;-70
2023/05/05 13:16:48;;;;;;;11.45;6.00;;;;;;;19.47;53.79;100960.88;6051634;28;20029;-69
2023/05/05 13:19:46;;;;;;;11.80;5.75;;;;;;;19.55;52.69;100974.19;6051663;28;20421;-69
2023/05/05 13:22:41;;;;;;;9.27;5.43;;;;;;;19.40;53.18;100962.72;6051519;28;20496;-71
2023/05/05 13:25:37;;;;;;;12.10;6.23;;;;;;;19.64;53.38;100956.03;6050970;28;20030;-68
2023/05/05 13:28:34;;;;;;;11.00;5.53;;;;;;;19.77;51.86;100948.84;6065750;28;20042;-72
2023/05/05 13:31:29;;;;;;;11.55;6.60;;;;;;;19.10;51.21;100953.16;6057099;28;20049;-69
2023/05/05 13:34:25;;;;;;;14.43;6.07;;;;;;;19.28;51.73;100946.25;6070462;28;20021;-69
2023/05/05 13:37:20;;;;;;;10.20;5.80;;;;;;;19.51;51.76;100951.41;6051338;28;20304;-67
2023/05/05 13:40:16;;;;;;;10.53;5.80;;;;;;;19.66;50.49;100948.56;6051655;28;20033;-73
2023/05/05 13:43:11;;;;;;;11.30;5.63;;;;;;;20.02;50.86;100933.84;6060374;28;20268;-70
2023/05/05 13:46:10;;;;;;;10.90;5.37;;;;;;;20.09;50.25;100923.06;6050457;28;20034;-67
2023/05/05 13:49:05;;;;;;;9.38;4.82;;;;;;;20.53;49.74;100923.41;6051296;28;20457;-68